createdAt,value
2022-08-20T00:01:02.587Z,16.87
2022-08-20T00:01:56.658Z,16.83
2022-08-20T00:02:57.050Z,16.8
2022-08-20T00:04:01.855Z,16.94
2022-08-20T00:04:58.108Z,16.8
2022-08-20T00:06:02.612Z,16.79
2022-08-20T00:06:59.831Z,16.86
2022-08-20T00:07:59.839Z,16.8
2022-08-20T00:09:00.331Z,16.94
2022-08-20T00:10:00.254Z,16.89
2022-08-20T00:11:01.659Z,16.89
2022-08-20T00:12:01.457Z,16.8
2022-08-20T00:13:02.935Z,16.82
2022-08-20T00:14:03.130Z,16.8
2022-08-20T00:15:04.327Z,16.8
2022-08-20T00:16:05.235Z,16.83
2022-08-20T00:17:05.843Z,16.91
2022-08-20T00:18:05.773Z,16.95
2022-08-20T00:19:06.013Z,16.86
2022-08-20T00:20:06.906Z,16.89
2022-08-20T00:21:08.121Z,16.95
2022-08-20T00:22:08.752Z,16.91
2022-08-20T00:23:13.273Z,16.94
2022-08-20T00:24:10.190Z,16.95
2022-08-20T00:25:10.412Z,16.99
2022-08-20T00:26:11.035Z,16.95
2022-08-20T00:27:11.527Z,16.97
2022-08-20T00:28:11.742Z,16.95
2022-08-20T00:29:14.091Z,16.95
2022-08-20T00:30:12.895Z,16.99
2022-08-20T00:31:13.235Z,16.97
2022-08-20T00:32:14.432Z,16.98
2022-08-20T00:33:15.355Z,17.01
2022-08-20T00:34:15.698Z,17.02
2022-08-20T00:35:19.185Z,17.05
2022-08-20T00:36:17.383Z,17.09
2022-08-20T00:37:17.909Z,17.1
2022-08-20T00:38:18.852Z,17.04
2022-08-20T00:39:19.573Z,17.01
2022-08-20T00:40:28.749Z,17.07
2022-08-20T00:41:20.970Z,17.14
2022-08-20T00:42:20.891Z,17.13
2022-08-20T00:43:21.524Z,17.13
2022-08-20T00:44:22.743Z,17.16
2022-08-20T00:45:22.931Z,17.19
2022-08-20T00:46:31.366Z,17.09
2022-08-20T00:47:24.195Z,17.22
2022-08-20T00:48:25.108Z,17.1
2022-08-20T00:49:25.563Z,17.12
2022-08-20T00:50:26.495Z,17.09
2022-08-20T00:51:27.504Z,17.13
2022-08-20T00:52:27.859Z,17.2
2022-08-20T00:53:29.153Z,17.16
2022-08-20T00:54:29.355Z,17.22
2022-08-20T00:55:33.359Z,17.14
2022-08-20T00:56:30.550Z,17.23
2022-08-20T00:58:02.101Z,17.09
2022-08-20T00:58:32.260Z,17.09
2022-08-20T00:59:32.986Z,17.09
2022-08-20T01:00:33.479Z,17.24
2022-08-20T01:01:54.992Z,17.12
2022-08-20T01:02:33.619Z,17.16
2022-08-20T01:03:34.538Z,17.24
2022-08-20T01:04:34.453Z,17.27
2022-08-20T01:05:35.835Z,17.09
2022-08-20T01:06:37.529Z,17.09
2022-08-20T01:07:37.024Z,17.2
2022-08-20T01:08:37.365Z,17.12
2022-08-20T01:10:05.562Z,17.19
2022-08-20T01:11:05.776Z,17.24
2022-08-20T01:12:06.712Z,17.24
2022-08-20T01:13:07.906Z,17.14
2022-08-20T01:14:08.108Z,17.14
2022-08-20T01:15:08.149Z,17.12
2022-08-20T01:16:08.728Z,17.12
2022-08-20T01:17:13.212Z,17.01
2022-08-20T01:18:10.115Z,17.13
2022-08-20T01:19:35.417Z,17.07
2022-08-20T01:20:22.842Z,17.09
2022-08-20T01:21:24.032Z,17.09
2022-08-20T01:22:23.935Z,17.07
2022-08-20T01:23:24.852Z,17.1
2022-08-20T01:24:24.705Z,17.05
2022-08-20T01:25:25.624Z,17.02
2022-08-20T01:26:26.539Z,17.07
2022-08-20T01:27:26.866Z,17.02
2022-08-20T01:28:27.545Z,17.01
2022-08-20T01:29:28.232Z,16.98
2022-08-20T01:30:28.662Z,17.01
2022-08-20T01:31:28.885Z,17.12
2022-08-20T01:32:29.502Z,17.04
2022-08-20T01:33:29.857Z,17.01
2022-08-20T01:34:30.313Z,17.02
2022-08-20T01:35:31.232Z,17.01
2022-08-20T01:36:32.423Z,17.04
2022-08-20T01:37:37.470Z,16.97
2022-08-20T01:38:33.792Z,17.01
2022-08-20T01:39:35.203Z,17.04
2022-08-20T01:40:35.777Z,17.12
2022-08-20T01:41:35.708Z,16.99
2022-08-20T01:42:36.900Z,17.1
2022-08-20T01:43:43.525Z,17.09
2022-08-20T01:44:39.872Z,17.1
2022-08-20T01:45:40.649Z,17.14
2022-08-20T01:46:44.592Z,17.1
2022-08-20T01:47:45.073Z,17.19
2022-08-20T01:48:40.750Z,17.2
2022-08-20T01:49:41.672Z,17.2
2022-08-20T01:50:42.696Z,17.22
2022-08-20T01:51:43.300Z,17.14
2022-08-20T01:52:43.562Z,17.14
2022-08-20T01:53:44.201Z,17.09
2022-08-20T01:54:45.099Z,17.19
2022-08-20T01:55:46.001Z,17.22
2022-08-20T01:56:46.196Z,17.09
2022-08-20T01:57:46.894Z,17.22
2022-08-20T01:58:46.798Z,17.24
2022-08-20T01:59:48.315Z,17.05
2022-08-20T02:00:48.893Z,17.28
2022-08-20T02:01:52.660Z,17.24
2022-08-20T02:02:49.699Z,17.22
2022-08-20T02:03:50.744Z,17.22
2022-08-20T02:04:50.370Z,17.24
2022-08-20T02:05:50.990Z,17.24
2022-08-20T02:07:03.019Z,17.2
2022-08-20T02:07:52.043Z,17.23
2022-08-20T02:08:53.262Z,17.2
2022-08-20T02:09:52.885Z,17.2
2022-08-20T02:10:54.164Z,17.24
2022-08-20T02:11:54.481Z,17.2
2022-08-20T02:12:55.378Z,17.22
2022-08-20T02:13:55.876Z,17.19
2022-08-20T02:14:56.472Z,17.2
2022-08-20T02:15:58.003Z,17.19
2022-08-20T02:17:01.389Z,17.14
2022-08-20T02:17:58.015Z,17.22
2022-08-20T02:18:58.934Z,17.14
2022-08-20T02:19:59.824Z,17.19
2022-08-20T02:21:00.255Z,17.24
2022-08-20T02:22:00.749Z,17.09
2022-08-20T02:23:00.821Z,17.09
2022-08-20T02:24:02.018Z,17.22
2022-08-20T02:25:01.999Z,17.12
2022-08-20T02:26:03.195Z,17.14
2022-08-20T02:27:03.538Z,17.2
2022-08-20T02:28:04.737Z,17.12
2022-08-20T02:29:06.863Z,17.22
2022-08-20T02:30:06.967Z,17.1
2022-08-20T02:31:11.126Z,17.23
2022-08-20T02:32:39.374Z,17.2
2022-08-20T02:33:13.108Z,17.23
2022-08-20T02:34:27.793Z,17.17
2022-08-20T02:35:13.708Z,17.12
2022-08-20T02:36:13.349Z,17.12
2022-08-20T02:37:13.964Z,17.17
2022-08-20T02:38:14.603Z,17.12
2022-08-20T02:39:15.798Z,17.13
2022-08-20T02:40:16.487Z,17.1
2022-08-20T02:41:17.287Z,17.3
2022-08-20T02:42:17.502Z,17.27
2022-08-20T02:43:18.418Z,17.13
2022-08-20T02:44:18.616Z,17.24
2022-08-20T02:45:24.638Z,17.23
2022-08-20T02:46:19.239Z,17.23
2022-08-20T02:47:20.346Z,17.22
2022-08-20T02:48:21.287Z,17.14
2022-08-20T02:49:21.456Z,17.19
2022-08-20T02:50:21.675Z,17.27
2022-08-20T02:51:31.119Z,17.2
2022-08-20T02:52:23.014Z,17.24
2022-08-20T02:53:23.937Z,17.23
2022-08-20T02:54:24.123Z,17.19
2022-08-20T02:55:33.243Z,17.2
2022-08-20T02:56:24.735Z,17.19
2022-08-20T02:57:24.926Z,17.19
2022-08-20T02:58:25.573Z,17.23
2022-08-20T02:59:26.489Z,17.16
2022-08-20T03:00:27.098Z,17.2
2022-08-20T03:01:28.009Z,17.24
2022-08-20T03:02:28.067Z,17.3
2022-08-20T03:03:27.683Z,17.34
2022-08-20T03:04:31.564Z,17.23
2022-08-20T03:05:28.475Z,17.28
2022-08-20T03:06:29.702Z,17.27
2022-08-20T03:07:30.604Z,17.34
2022-08-20T03:08:31.506Z,17.27
2022-08-20T03:09:32.147Z,17.31
2022-08-20T03:10:32.489Z,17.3
2022-08-20T03:11:35.862Z,17.3
2022-08-20T03:12:34.557Z,17.27
2022-08-20T03:13:35.005Z,17.27
2022-08-20T03:14:35.215Z,17.3
2022-08-20T03:15:35.414Z,17.28
2022-08-20T03:16:36.326Z,17.24
2022-08-20T03:17:36.817Z,17.3
2022-08-20T03:18:37.010Z,17.23
2022-08-20T03:19:37.678Z,17.22
2022-08-20T03:20:40.134Z,17.3
2022-08-20T03:21:38.686Z,17.35
2022-08-20T03:22:38.898Z,17.37
2022-08-20T03:23:41.226Z,17.34
2022-08-20T03:24:39.424Z,17.31
2022-08-20T03:25:40.321Z,17.35
2022-08-20T03:26:40.941Z,17.31
2022-08-20T03:27:42.614Z,17.42
2022-08-20T03:28:41.395Z,17.35
2022-08-20T03:29:41.789Z,17.38
2022-08-20T03:30:42.692Z,17.3
2022-08-20T03:31:43.721Z,17.31
2022-08-20T03:32:43.938Z,17.28
2022-08-20T03:33:54.723Z,17.31
2022-08-20T03:34:44.361Z,17.31
2022-08-20T03:35:45.295Z,17.24
2022-08-20T03:36:46.493Z,17.28
2022-08-20T03:37:54.711Z,17.31
2022-08-20T03:38:47.888Z,17.32
2022-08-20T03:39:48.240Z,17.3
2022-08-20T03:40:48.380Z,17.31
2022-08-20T03:41:49.128Z,17.35
2022-08-20T03:42:50.346Z,17.34
2022-08-20T03:43:50.291Z,17.32
2022-08-20T03:44:59.536Z,17.39
2022-08-20T03:45:51.433Z,17.3
2022-08-20T03:46:52.352Z,17.3
2022-08-20T03:47:53.066Z,17.27
2022-08-20T03:49:00.886Z,17.27
2022-08-20T03:49:54.295Z,17.17
2022-08-20T03:50:55.189Z,17.14
2022-08-20T03:52:04.758Z,17.31
2022-08-20T03:53:05.950Z,17.32
2022-08-20T03:54:06.466Z,17.23
2022-08-20T03:55:06.359Z,17.24
2022-08-20T03:56:08.454Z,17.27
2022-08-20T03:57:13.430Z,17.22
2022-08-20T03:58:08.346Z,17.32
2022-08-20T03:59:09.285Z,17.23
2022-08-20T04:00:09.909Z,17.24
2022-08-20T04:01:46.680Z,17.2
2022-08-20T04:02:35.328Z,17.3
2022-08-20T04:03:36.221Z,17.28
2022-08-20T04:04:36.865Z,17.24
2022-08-20T04:05:37.804Z,17.23
2022-08-20T04:06:39.225Z,17.3
2022-08-20T04:07:40.063Z,17.3
2022-08-20T04:08:39.553Z,17.22
2022-08-20T04:09:40.046Z,17.17
2022-08-20T04:10:40.241Z,17.24
2022-08-20T04:11:40.908Z,17.2
2022-08-20T04:12:53.383Z,17.19
2022-08-20T04:13:49.916Z,17.2
2022-08-20T04:14:43.086Z,17.27
2022-08-20T04:15:43.977Z,17.2
2022-08-20T04:16:47.588Z,17.3
2022-08-20T04:17:44.777Z,17.27
2022-08-20T04:19:02.867Z,17.32
2022-08-20T04:19:45.805Z,17.31
2022-08-20T04:20:45.744Z,17.19
2022-08-20T04:21:46.966Z,17.24
2022-08-20T04:23:02.005Z,17.24
2022-08-20T04:23:48.507Z,17.31
2022-08-20T04:24:48.705Z,17.31
2022-08-20T04:25:49.566Z,17.3
2022-08-20T04:26:50.119Z,17.24
2022-08-20T04:27:51.279Z,17.34
2022-08-20T04:28:51.787Z,17.27
2022-08-20T04:29:52.286Z,17.32
2022-08-20T04:30:57.260Z,17.27
2022-08-20T04:31:53.189Z,17.31
2022-08-20T04:32:54.403Z,17.37
2022-08-20T04:33:53.305Z,17.35
2022-08-20T04:34:54.497Z,17.35
2022-08-20T04:35:54.990Z,17.32
2022-08-20T04:36:54.924Z,17.32
2022-08-20T04:37:55.734Z,17.37
2022-08-20T04:38:56.860Z,17.38
2022-08-20T04:39:59.375Z,17.39
2022-08-20T04:40:56.167Z,17.35
2022-08-20T04:41:56.808Z,17.37
2022-08-20T04:42:59.974Z,17.35
2022-08-20T04:43:58.867Z,17.37
2022-08-20T04:45:01.611Z,17.34
2022-08-20T04:45:59.232Z,17.37
2022-08-20T04:47:00.129Z,17.35
2022-08-20T04:48:01.241Z,17.38
2022-08-20T04:49:01.118Z,17.35
2022-08-20T04:50:03.480Z,17.39
2022-08-20T04:51:04.670Z,17.31
2022-08-20T04:52:02.599Z,17.34
2022-08-20T04:53:03.599Z,17.41
2022-08-20T04:54:04.098Z,17.39
2022-08-20T04:55:06.171Z,17.32
2022-08-20T04:56:05.091Z,17.34
2022-08-20T04:57:06.327Z,17.34
2022-08-20T04:58:06.695Z,17.31
2022-08-20T04:59:07.918Z,17.31
2022-08-20T05:00:08.537Z,17.38
2022-08-20T05:01:09.612Z,17.34
2022-08-20T05:02:10.145Z,17.22
2022-08-20T05:03:10.598Z,17.31
2022-08-20T05:04:11.818Z,17.39
2022-08-20T05:05:11.720Z,17.34
2022-08-20T05:06:11.939Z,17.28
2022-08-20T05:07:12.834Z,17.34
2022-08-20T05:08:25.838Z,17.38
2022-08-20T05:09:13.758Z,17.38
2022-08-20T05:10:14.167Z,17.35
2022-08-20T05:11:41.171Z,17.38
2022-08-20T05:12:14.796Z,17.38
2022-08-20T05:13:15.692Z,17.39
2022-08-20T05:14:16.066Z,17.41
2022-08-20T05:15:17.288Z,17.34
2022-08-20T05:16:17.511Z,17.41
2022-08-20T05:17:18.158Z,17.41
2022-08-20T05:18:19.358Z,17.44
2022-08-20T05:19:20.000Z,17.44
2022-08-20T05:20:20.598Z,17.39
2022-08-20T05:21:21.813Z,17.38
2022-08-20T05:22:22.720Z,17.38
2022-08-20T05:23:23.643Z,17.34
2022-08-20T05:24:23.561Z,17.39
2022-08-20T05:25:24.456Z,17.44
2022-08-20T05:26:24.673Z,17.39
2022-08-20T05:27:30.562Z,17.37
2022-08-20T05:28:25.723Z,17.38
2022-08-20T05:29:26.598Z,17.37
2022-08-20T05:30:28.095Z,17.38
2022-08-20T05:31:36.221Z,17.49
2022-08-20T05:32:29.138Z,17.47
2022-08-20T05:33:30.221Z,17.52
2022-08-20T05:34:30.444Z,17.49
2022-08-20T05:35:31.369Z,17.47
2022-08-20T05:36:31.993Z,17.52
2022-08-20T05:37:33.105Z,17.56
2022-08-20T05:38:33.005Z,17.53
2022-08-20T05:39:37.793Z,17.54
2022-08-20T05:40:33.844Z,17.53
2022-08-20T05:41:35.535Z,17.54
2022-08-20T05:42:34.472Z,17.53
2022-08-20T05:43:35.217Z,17.53
2022-08-20T05:44:36.418Z,17.53
2022-08-20T05:45:37.315Z,17.63
2022-08-20T05:46:37.947Z,17.68
2022-08-20T05:47:43.580Z,17.52
2022-08-20T05:48:38.762Z,17.69
2022-08-20T05:49:39.668Z,17.54
2022-08-20T05:50:39.866Z,17.6
2022-08-20T05:51:40.366Z,17.69
2022-08-20T05:52:40.299Z,17.6
2022-08-20T05:53:40.480Z,17.66
2022-08-20T05:54:41.399Z,17.68
2022-08-20T05:55:42.316Z,17.68
2022-08-20T05:56:41.931Z,17.59
2022-08-20T05:57:43.908Z,17.66
2022-08-20T05:58:43.219Z,17.63
2022-08-20T05:59:44.182Z,17.71
2022-08-20T06:00:44.384Z,17.69
2022-08-20T06:01:45.718Z,17.68
2022-08-20T06:02:45.476Z,17.71
2022-08-20T06:03:45.886Z,17.66
2022-08-20T06:04:56.791Z,17.66
2022-08-20T06:05:47.411Z,17.69
2022-08-20T06:06:51.963Z,17.63
2022-08-20T06:07:49.697Z,17.68
2022-08-20T06:08:51.431Z,17.68
2022-08-20T06:09:50.645Z,17.6
2022-08-20T06:10:51.135Z,17.68
2022-08-20T06:11:51.345Z,17.59
2022-08-20T06:12:52.093Z,17.59
2022-08-20T06:13:52.423Z,17.63
2022-08-20T06:14:53.318Z,17.68
2022-08-20T06:15:54.061Z,17.54
2022-08-20T06:17:05.335Z,17.54
2022-08-20T06:18:28.913Z,17.65
2022-08-20T06:18:58.534Z,17.5
2022-08-20T06:19:55.562Z,17.44
2022-08-20T06:20:56.502Z,17.65
2022-08-20T06:21:59.468Z,17.57
2022-08-20T06:22:58.270Z,17.63
2022-08-20T06:24:08.036Z,17.69
2022-08-20T06:25:10.468Z,17.75
2022-08-20T06:26:10.102Z,17.72
2022-08-20T06:27:10.235Z,17.68
2022-08-20T06:28:10.161Z,17.69
2022-08-20T06:29:10.812Z,17.76
2022-08-20T06:30:12.447Z,17.72
2022-08-20T06:31:12.654Z,17.76
2022-08-20T06:32:12.595Z,17.69
2022-08-20T06:33:13.477Z,17.79
2022-08-20T06:34:14.074Z,17.76
2022-08-20T06:35:20.219Z,17.76
2022-08-20T06:36:19.211Z,17.75
2022-08-20T06:37:14.881Z,17.78
2022-08-20T06:38:15.430Z,17.68
2022-08-20T06:39:15.359Z,17.8
2022-08-20T06:40:16.557Z,17.76
2022-08-20T06:41:16.806Z,17.76
2022-08-20T06:42:21.574Z,17.8
2022-08-20T06:43:18.212Z,17.75
2022-08-20T06:44:19.239Z,17.94
2022-08-20T06:45:19.167Z,17.88
2022-08-20T06:46:19.718Z,17.87
2022-08-20T06:47:19.662Z,17.93
2022-08-20T06:48:21.190Z,17.9
2022-08-20T06:49:21.410Z,17.91
2022-08-20T06:50:21.885Z,17.9
2022-08-20T06:51:22.512Z,17.97
2022-08-20T06:52:53.458Z,17.93
2022-08-20T06:53:23.071Z,17.9
2022-08-20T06:54:29.762Z,18.02
2022-08-20T06:55:23.996Z,17.9
2022-08-20T06:56:24.216Z,17.95
2022-08-20T06:57:24.137Z,17.94
2022-08-20T06:58:43.410Z,17.9
2022-08-20T06:59:25.919Z,17.95
2022-08-20T07:00:26.329Z,18
2022-08-20T07:01:27.657Z,17.9
2022-08-20T07:02:34.934Z,18.03
2022-08-20T07:03:28.860Z,18.05
2022-08-20T07:04:29.278Z,17.98
2022-08-20T07:05:30.201Z,18.05
2022-08-20T07:06:30.118Z,18.03
2022-08-20T07:07:30.551Z,18.02
2022-08-20T07:08:31.461Z,17.98
2022-08-20T07:09:31.790Z,18.03
2022-08-20T07:10:31.720Z,17.98
2022-08-20T07:11:34.583Z,17.95
2022-08-20T07:12:33.081Z,17.91
2022-08-20T07:13:33.020Z,17.86
2022-08-20T07:14:34.920Z,17.9
2022-08-20T07:15:34.115Z,17.94
2022-08-20T07:16:34.765Z,17.91
2022-08-20T07:17:35.991Z,17.94
2022-08-20T07:18:36.910Z,17.95
2022-08-20T07:19:37.404Z,17.91
2022-08-20T07:20:37.616Z,17.82
2022-08-20T07:21:37.808Z,17.79
2022-08-20T07:22:38.067Z,17.78
2022-08-20T07:23:39.264Z,17.78
2022-08-20T07:24:49.377Z,17.73
2022-08-20T07:25:41.025Z,17.76
2022-08-20T07:26:41.230Z,17.71
2022-08-20T07:27:41.618Z,17.75
2022-08-20T07:28:41.815Z,17.69
2022-08-20T07:29:42.469Z,17.72
2022-08-20T07:31:15.788Z,17.66
2022-08-20T07:31:44.103Z,17.73
2022-08-20T07:32:45.970Z,17.66
2022-08-20T07:33:45.595Z,17.59
2022-08-20T07:34:50.109Z,17.68
2022-08-20T07:35:45.477Z,17.69
2022-08-20T07:36:46.419Z,17.57
2022-08-20T07:37:47.620Z,17.66
2022-08-20T07:38:47.952Z,17.6
2022-08-20T07:39:48.287Z,17.63
2022-08-20T07:40:49.124Z,17.63
2022-08-20T07:41:58.814Z,17.53
2022-08-20T07:42:50.703Z,17.57
2022-08-20T07:43:51.909Z,17.59
2022-08-20T07:44:51.917Z,17.63
2022-08-20T07:45:59.306Z,17.49
2022-08-20T07:46:53.549Z,17.49
2022-08-20T07:47:53.915Z,17.6
2022-08-20T07:48:54.562Z,17.54
2022-08-20T07:49:55.503Z,17.52
2022-08-20T07:50:56.005Z,17.53
2022-08-20T07:51:55.924Z,17.5
2022-08-20T07:52:57.044Z,17.54
2022-08-20T07:53:57.584Z,17.57
2022-08-20T07:54:57.598Z,17.53
2022-08-20T07:56:05.364Z,17.56
2022-08-20T07:56:58.923Z,17.54
2022-08-20T07:57:59.487Z,17.63
2022-08-20T07:59:00.209Z,17.65
2022-08-20T08:00:00.149Z,17.56
2022-08-20T08:01:04.388Z,17.54
2022-08-20T08:02:01.476Z,17.63
2022-08-20T08:03:02.172Z,17.52
2022-08-20T08:04:02.689Z,17.53
2022-08-20T08:05:02.983Z,17.52
2022-08-20T08:06:03.198Z,17.5
2022-08-20T08:07:03.473Z,17.42
2022-08-20T08:08:07.550Z,17.41
2022-08-20T08:09:05.475Z,17.42
2022-08-20T08:10:05.980Z,17.39
2022-08-20T08:11:05.899Z,17.44
2022-08-20T08:12:06.048Z,17.42
2022-08-20T08:13:06.965Z,17.37
2022-08-20T08:14:07.610Z,17.37
2022-08-20T08:15:08.317Z,17.44
2022-08-20T08:16:08.513Z,17.42
2022-08-20T08:17:08.433Z,17.52
2022-08-20T08:18:08.652Z,17.44
2022-08-20T08:19:09.280Z,17.54
2022-08-20T08:20:10.224Z,17.54
2022-08-20T08:21:10.930Z,17.54
2022-08-20T08:22:11.143Z,17.47
2022-08-20T08:23:31.384Z,17.46
2022-08-20T08:24:22.546Z,17.37
2022-08-20T08:25:12.297Z,17.41
2022-08-20T08:26:21.434Z,17.41
2022-08-20T08:27:13.656Z,17.47
2022-08-20T08:28:14.278Z,17.54
2022-08-20T08:29:15.481Z,17.53
2022-08-20T08:30:15.823Z,17.52
2022-08-20T08:31:17.043Z,17.46
2022-08-20T08:32:17.678Z,17.57
2022-08-20T08:33:18.590Z,17.69
2022-08-20T08:34:18.513Z,17.57
2022-08-20T08:35:19.245Z,17.73
2022-08-20T08:36:19.873Z,17.73
2022-08-20T08:37:20.795Z,17.71
2022-08-20T08:38:21.006Z,17.76
2022-08-20T08:39:21.503Z,17.79
2022-08-20T08:40:21.757Z,17.79
2022-08-20T08:41:21.983Z,17.91
2022-08-20T08:42:23.204Z,17.82
2022-08-20T08:43:32.155Z,17.9
2022-08-20T08:44:24.147Z,17.79
2022-08-20T08:45:25.150Z,17.91
2022-08-20T08:46:26.344Z,17.84
2022-08-20T08:47:26.990Z,17.9
2022-08-20T08:48:27.914Z,17.97
2022-08-20T08:49:38.469Z,17.97
2022-08-20T08:50:58.568Z,18.08
2022-08-20T08:51:30.498Z,18.05
2022-08-20T08:52:32.789Z,18.15
2022-08-20T08:53:30.711Z,18.11
2022-08-20T08:54:31.655Z,18.11
2022-08-20T08:55:33.865Z,18.23
2022-08-20T08:56:33.065Z,18.16
2022-08-20T08:57:33.220Z,18.19
2022-08-20T08:58:33.868Z,18.13
2022-08-20T09:00:05.274Z,18.18
2022-08-20T09:00:53.475Z,18.12
2022-08-20T09:02:03.190Z,18.19
2022-08-20T09:03:01.439Z,18.26
2022-08-20T09:04:01.018Z,18.21
2022-08-20T09:05:01.347Z,18.15
2022-08-20T09:06:02.803Z,18.16
2022-08-20T09:07:03.028Z,18.18
2022-08-20T09:08:02.948Z,18.09
2022-08-20T09:09:03.872Z,18.06
2022-08-20T09:10:05.077Z,18.15
2022-08-20T09:11:05.574Z,18.24
2022-08-20T09:12:06.504Z,18.12
2022-08-20T09:13:06.453Z,18.24
2022-08-20T09:14:08.931Z,18.27
2022-08-20T09:15:07.876Z,18.37
2022-08-20T09:16:08.435Z,18.34
2022-08-20T09:17:09.085Z,18.31
2022-08-20T09:18:10.285Z,18.26
2022-08-20T09:19:10.184Z,18.23
2022-08-20T09:20:11.132Z,18.27
2022-08-20T09:21:11.872Z,18.18
2022-08-20T09:22:13.375Z,18.31
2022-08-20T09:23:13.578Z,18.37
2022-08-20T09:24:14.781Z,18.48
2022-08-20T09:25:15.686Z,18.41
2022-08-20T09:26:15.420Z,18.49
2022-08-20T09:27:16.564Z,18.58
2022-08-20T09:28:18.760Z,18.57
2022-08-20T09:29:17.378Z,18.73
2022-08-20T09:30:20.591Z,18.86
2022-08-20T09:31:23.622Z,18.92
2022-08-20T09:32:18.971Z,19.07
2022-08-20T09:33:18.955Z,19.3
2022-08-20T09:34:19.574Z,19.52
2022-08-20T09:35:21.068Z,19.72
2022-08-20T09:36:38.570Z,19.74
2022-08-20T09:37:22.208Z,19.84
2022-08-20T09:38:23.053Z,20.02
2022-08-20T09:39:22.983Z,20.04
2022-08-20T09:40:27.485Z,20.1
2022-08-20T09:41:24.736Z,20.15
2022-08-20T09:42:26.001Z,20.11
2022-08-20T09:43:26.621Z,20.22
2022-08-20T09:44:28.522Z,20.3
2022-08-20T09:45:28.023Z,20.24
2022-08-20T09:46:33.479Z,20.14
2022-08-20T09:47:29.133Z,20.14
2022-08-20T09:48:38.154Z,20.15
2022-08-20T09:49:30.391Z,20.12
2022-08-20T09:50:31.598Z,20.22
2022-08-20T09:51:31.227Z,20.18
2022-08-20T09:52:31.945Z,20.14
2022-08-20T09:53:32.491Z,20.18
2022-08-20T09:54:35.583Z,20.36
2022-08-20T09:55:32.714Z,20.36
2022-08-20T09:56:33.461Z,20.58
2022-08-20T09:57:33.385Z,20.55
2022-08-20T09:58:34.070Z,20.63
2022-08-20T09:59:35.420Z,20.6
2022-08-20T10:01:37.288Z,20.63
2022-08-20T10:02:37.442Z,20.59
2022-08-20T10:03:42.177Z,20.49
2022-08-20T10:04:39.379Z,20.4
2022-08-20T10:05:40.326Z,20.29
2022-08-20T10:06:43.726Z,20.26
2022-08-20T10:07:39.625Z,20.26
2022-08-20T10:08:40.565Z,20.17
2022-08-20T10:09:40.789Z,20.15
2022-08-20T10:10:41.414Z,20.08
2022-08-20T10:11:42.353Z,20.07
2022-08-20T10:12:43.556Z,20
2022-08-20T10:13:43.384Z,19.87
2022-08-20T10:14:44.034Z,19.82
2022-08-20T10:15:47.538Z,19.84
2022-08-20T10:16:45.124Z,19.85
2022-08-20T10:17:45.787Z,19.81
2022-08-20T10:18:45.994Z,19.89
2022-08-20T10:19:46.899Z,19.94
2022-08-20T10:20:47.817Z,19.94
2022-08-20T10:21:48.739Z,19.94
2022-08-20T10:22:48.661Z,19.82
2022-08-20T10:23:48.989Z,20.03
2022-08-20T10:24:49.641Z,20.11
2022-08-20T10:25:50.148Z,20.12
2022-08-20T10:26:50.028Z,20.24
2022-08-20T10:27:50.337Z,20.27
2022-08-20T10:28:51.800Z,20.66
2022-08-20T10:29:53.145Z,20.9
2022-08-20T10:30:52.497Z,20.92
2022-08-20T10:31:53.710Z,20.88
2022-08-20T10:32:54.611Z,20.88
2022-08-20T10:33:54.821Z,20.83
2022-08-20T10:34:55.752Z,20.8
2022-08-20T10:36:00.864Z,20.77
2022-08-20T10:36:56.892Z,20.64
2022-08-20T10:37:58.122Z,20.64
2022-08-20T10:38:58.118Z,20.58
2022-08-20T10:39:59.272Z,20.55
2022-08-20T10:40:59.394Z,20.4
2022-08-20T10:41:59.999Z,20.37
2022-08-20T10:43:00.349Z,20.36
2022-08-20T10:44:01.252Z,20.64
2022-08-20T10:45:01.745Z,21.03
2022-08-20T10:46:01.651Z,21.17
2022-08-20T10:47:02.691Z,21.63
2022-08-20T10:48:03.943Z,21.83
2022-08-20T10:49:04.114Z,22.01
2022-08-20T10:50:04.758Z,22.28
2022-08-20T10:51:05.659Z,22.52
2022-08-20T10:52:06.703Z,22.62
2022-08-20T10:53:07.297Z,22.7
2022-08-20T10:54:13.188Z,22.78
2022-08-20T10:55:08.419Z,22.93
2022-08-20T10:56:08.993Z,23.01
2022-08-20T10:57:08.460Z,23.06
2022-08-20T10:58:11.623Z,23.08
2022-08-20T10:59:09.887Z,22.98
2022-08-20T11:00:10.818Z,23.13
2022-08-20T11:01:11.925Z,23.1
2022-08-20T11:02:12.151Z,23.16
2022-08-20T11:03:12.101Z,23.13
2022-08-20T11:04:13.308Z,23.16
2022-08-20T11:05:13.809Z,23.11
2022-08-20T11:06:14.161Z,22.86
2022-08-20T11:07:15.492Z,22.81
2022-08-20T11:08:34.913Z,22.7
2022-08-20T11:09:17.159Z,22.65
2022-08-20T11:10:20.496Z,22.67
2022-08-20T11:11:18.126Z,22.59
2022-08-20T11:12:19.031Z,22.41
2022-08-20T11:13:19.958Z,22.25
2022-08-20T11:14:20.187Z,22.1
2022-08-20T11:15:20.113Z,22.12
2022-08-20T11:16:23.275Z,22.26
2022-08-20T11:17:22.338Z,22.3
2022-08-20T11:18:22.448Z,22.26
2022-08-20T11:19:23.382Z,22.26
2022-08-20T11:20:23.723Z,22.22
2022-08-20T11:21:24.644Z,22.28
2022-08-20T11:22:25.863Z,22.23
2022-08-20T11:23:26.512Z,22.31
2022-08-20T11:24:26.808Z,22.51
2022-08-20T11:25:27.739Z,22.55
2022-08-20T11:26:27.966Z,22.83
2022-08-20T11:27:28.153Z,22.86
2022-08-20T11:28:37.326Z,22.83
2022-08-20T11:29:34.307Z,22.81
2022-08-20T11:30:29.897Z,22.83
2022-08-20T11:31:31.110Z,22.77
2022-08-20T11:32:32.016Z,22.83
2022-08-20T11:33:32.642Z,22.68
2022-08-20T11:34:32.723Z,22.62
2022-08-20T11:35:55.331Z,22.78
2022-08-20T11:36:33.829Z,22.78
2022-08-20T11:37:34.581Z,22.8
2022-08-20T11:38:34.651Z,22.81
2022-08-20T11:39:41.867Z,22.83
2022-08-20T11:40:36.615Z,22.78
2022-08-20T11:41:36.962Z,22.78
2022-08-20T11:43:14.008Z,22.81
2022-08-20T11:43:38.063Z,22.73
2022-08-20T11:44:38.020Z,22.73
2022-08-20T11:45:43.172Z,22.76
2022-08-20T11:46:39.105Z,22.77
2022-08-20T11:47:40.134Z,22.84
2022-08-20T11:48:40.339Z,22.91
2022-08-20T11:49:40.547Z,22.95
2022-08-20T11:50:41.450Z,23.06
2022-08-20T11:51:56.048Z,23.08
2022-08-20T11:52:42.264Z,23.11
2022-08-20T11:53:44.750Z,23.11
2022-08-20T11:54:43.258Z,23.08
2022-08-20T11:55:44.745Z,23.08
2022-08-20T11:56:51.674Z,22.95
2022-08-20T11:57:45.704Z,22.96
2022-08-20T11:58:45.933Z,22.98
2022-08-20T11:59:46.892Z,22.93
2022-08-20T12:00:47.529Z,22.95
2022-08-20T12:02:12.822Z,22.95
2022-08-20T12:02:49.285Z,22.98
2022-08-20T12:03:50.039Z,23.17
2022-08-20T12:04:50.540Z,23.32
2022-08-20T12:05:50.730Z,23.44
2022-08-20T12:06:51.649Z,23.4
2022-08-20T12:07:52.654Z,23.44
2022-08-20T12:08:53.282Z,23.58
2022-08-20T12:09:57.303Z,23.69
2022-08-20T12:10:54.565Z,23.71
2022-08-20T12:11:55.946Z,23.76
2022-08-20T12:12:57.096Z,23.69
2022-08-20T12:13:56.322Z,23.79
2022-08-20T12:14:57.245Z,23.84
2022-08-20T12:15:57.747Z,23.84
2022-08-20T12:16:57.948Z,23.94
2022-08-20T12:17:59.024Z,23.88
2022-08-20T12:18:58.643Z,23.89
2022-08-20T12:20:00.158Z,23.95
2022-08-20T12:20:59.777Z,23.88
2022-08-20T12:22:25.509Z,23.28
2022-08-20T12:23:01.795Z,23.14
2022-08-20T12:24:01.719Z,22.84
2022-08-20T12:25:02.667Z,22.7
2022-08-20T12:26:05.003Z,22.4
2022-08-20T12:27:03.508Z,22.1
2022-08-20T12:28:03.863Z,21.84
2022-08-20T12:29:04.067Z,21.65
2022-08-20T12:30:05.271Z,21.43
2022-08-20T12:31:05.170Z,21.22
2022-08-20T12:32:05.374Z,21.17
2022-08-20T12:33:06.700Z,21.1
2022-08-20T12:34:06.329Z,21.13
2022-08-20T12:35:07.495Z,21.01
2022-08-20T12:36:07.698Z,21.03
2022-08-20T12:37:07.328Z,20.98
2022-08-20T12:38:08.707Z,21
2022-08-20T12:39:08.893Z,20.85
2022-08-20T12:40:09.138Z,20.75
2022-08-20T12:41:09.434Z,20.68
2022-08-20T12:42:09.634Z,20.52
2022-08-20T12:43:09.836Z,20.56
2022-08-20T12:44:13.579Z,20.49
2022-08-20T12:45:11.599Z,20.4
2022-08-20T12:46:12.425Z,20.56
2022-08-20T12:47:13.051Z,20.56
2022-08-20T12:48:14.036Z,20.6
2022-08-20T12:49:14.531Z,20.58
2022-08-20T12:50:14.436Z,20.52
2022-08-20T12:51:15.625Z,20.39
2022-08-20T12:52:15.266Z,20.42
2022-08-20T12:53:17.094Z,20.27
2022-08-20T12:54:16.301Z,20.15
2022-08-20T12:55:16.824Z,20.11
2022-08-20T12:56:16.746Z,20.11
2022-08-20T12:57:17.968Z,20.26
2022-08-20T12:58:19.599Z,20.26
2022-08-20T12:59:25.756Z,20.26
2022-08-20T13:00:19.646Z,20.19
2022-08-20T13:01:20.756Z,20.15
2022-08-20T13:02:24.974Z,20.08
2022-08-20T13:03:21.908Z,20.14
2022-08-20T13:04:22.874Z,20.15
2022-08-20T13:05:23.378Z,20.15
2022-08-20T13:06:24.006Z,20.14